KLAS

Mc Carran International Airport

Las Vegas, Nevada, USA
KLAS 240520Z 2406/2512 23007KT P6SM SCT250 FM241300 VRB05KT P6SM SCT250 FM241900 05006KT P6SM FEW250 FM250200 21006KT P6SM SCT250
Issued Valid From Valid To
Oct-24 @ 05:20 UTC
(44 minutes ago)
Oct-24 @ 06:00 UTC
(4 minutes ago)
Oct-25 @ 12:00 UTC
(-1 days ago)
Oct-24 @ 06:00 to Oct-24 @ 13:00
KLAS 240520Z 2406/2512 23007KT P6SM SCT250
Wind Visibility Clouds
230° at 7 knots Greater than 6 miles
  • Scattered at 25,000' AGL
From Oct-24 @ 13:00 to Oct-24 @ 19:00
FM241300 VRB05KT P6SM SCT250
Wind Visibility Clouds
Variable at 5 knots Greater than 6 miles
  • Scattered at 25,000' AGL
From Oct-24 @ 19:00 to Oct-25 @ 02:00
FM241900 05006KT P6SM FEW250
Wind Visibility Clouds
50° at 6 knots Greater than 6 miles
  • Few at 25,000' AGL
From Oct-25 @ 02:00 to Oct-25 @ 12:00
FM250200 21006KT P6SM SCT250
Wind Visibility Clouds
210° at 6 knots Greater than 6 miles
  • Scattered at 25,000' AGL
KLAS 240520Z 2406/2512 23007KT P6SM SCT250 FM241300 VRB05KT P6SM SCT250 FM241900 05006KT P6SM FEW250 FM250200 21006KT P6SM SCT250
Issued Oct-24 @ 05:20 UTC
(44 minutes ago)
Valid From Oct-24 @ 06:00 UTC
(4 minutes ago)
Valid To Oct-25 @ 12:00 UTC
(-1 days ago)
Oct-24 @ 06:00 - Oct-24 @ 13:00
Wind Visibility
230° at 7 knots Greater than 6 miles
Clouds
  • Scattered at 25,000' AGL
From Oct-24 @ 13:00 - Oct-24 @ 19:00
Wind Visibility
Variable at 5 knots Greater than 6 miles
Clouds
  • Scattered at 25,000' AGL
From Oct-24 @ 19:00 - Oct-25 @ 02:00
Wind Visibility
50° at 6 knots Greater than 6 miles
Clouds
  • Few at 25,000' AGL
From Oct-25 @ 02:00 - Oct-25 @ 12:00
Wind Visibility
210° at 6 knots Greater than 6 miles
Clouds
  • Scattered at 25,000' AGL